createdAt,value
2019-06-10T00:02:45.128Z,101625.23
2019-06-10T00:05:37.621Z,101617.76
2019-06-10T00:08:30.863Z,101611.56
2019-06-10T00:11:22.229Z,101605.86
2019-06-10T00:14:13.863Z,101597.80
2019-06-10T00:17:06.726Z,101593.52
2019-06-10T00:19:59.198Z,101596.88
2019-06-10T00:22:52.045Z,101593.13
2019-06-10T00:25:43.392Z,101586.66
2019-06-10T00:28:34.798Z,101586.80
2019-06-10T00:31:26.383Z,101575.94
2019-06-10T00:34:20.670Z,101577.26
2019-06-10T00:37:14.601Z,101577.52
2019-06-10T00:40:07.131Z,101581.92
2019-06-10T00:42:58.192Z,101570.77
2019-06-10T00:45:51.387Z,101576.05
2019-06-10T00:48:42.689Z,101573.32
2019-06-10T00:51:34.018Z,101568.94
2019-06-10T00:54:25.662Z,101567.39
2019-06-10T00:57:17.359Z,101564.35
2019-06-10T01:00:19.326Z,101561.51
2019-06-10T01:03:03.890Z,101560.34
2019-06-10T01:05:55.720Z,101554.58
2019-06-10T01:08:47.052Z,101551.59
2019-06-10T01:11:41.057Z,101544.29
2019-06-10T01:14:32.052Z,101542.68
2019-06-10T01:17:23.479Z,101538.47
2019-06-10T01:20:16.087Z,101528.34
2019-06-10T01:23:09.048Z,101530.26
2019-06-10T01:26:01.695Z,101518.98
2019-06-10T01:28:53.330Z,101517.91
2019-06-10T01:31:45.326Z,101516.09
2019-06-10T01:34:36.720Z,101514.05
2019-06-10T01:37:28.027Z,101507.85
2019-06-10T01:40:20.921Z,101499.41
2019-06-10T01:43:17.324Z,101495.34
2019-06-10T01:46:07.098Z,101488.69
2019-06-10T01:49:00.642Z,101486.84
2019-06-10T01:51:52.221Z,101484.77
2019-06-10T01:54:44.593Z,101472.31
2019-06-10T01:57:36.361Z,101471.05
2019-06-10T02:00:36.676Z,101466.98
2019-06-10T02:03:31.136Z,101460.10
2019-06-10T02:06:25.580Z,101455.34
2019-06-10T02:09:17.212Z,101449.34
2019-06-10T02:12:09.910Z,101445.30
2019-06-10T02:15:02.082Z,101435.23
2019-06-10T02:17:54.370Z,101436.83
2019-06-10T02:20:46.919Z,101434.67
2019-06-10T02:23:38.671Z,101430.02
2019-06-10T02:26:30.862Z,101427.30
2019-06-10T02:29:23.637Z,101420.52
2019-06-10T02:32:22.552Z,101410.43
2019-06-10T02:35:15.422Z,101410.20
2019-06-10T02:38:03.470Z,101403.48
2019-06-10T02:40:55.453Z,101405.41
2019-06-10T02:43:47.997Z,101406.11
2019-06-10T02:46:39.650Z,101407.02
2019-06-10T02:49:50.688Z,101404.56
2019-06-10T02:52:32.219Z,101403.58
2019-06-10T02:55:18.314Z,101403.85
2019-06-10T02:58:13.628Z,101401.11
2019-06-10T03:01:04.228Z,101398.71
2019-06-10T03:03:55.972Z,101400.05
2019-06-10T03:06:47.443Z,101402.83
2019-06-10T03:09:38.960Z,101394.78
2019-06-10T03:12:32.941Z,101390.52
2019-06-10T03:15:26.474Z,101382.77
2019-06-10T03:18:18.136Z,101375.34
2019-06-10T03:21:09.491Z,101377.27
2019-06-10T03:24:02.694Z,101378.07
2019-06-10T03:26:55.166Z,101382.38
2019-06-10T03:29:46.782Z,101381.06
2019-06-10T03:32:42.771Z,101385.28
2019-06-10T03:35:33.051Z,101380.53
2019-06-10T03:38:26.991Z,101371.47
2019-06-10T03:41:18.574Z,101361.28
2019-06-10T03:44:10.236Z,101360.22
2019-06-10T03:47:02.858Z,101362.56
2019-06-10T03:49:56.303Z,101354.68
2019-06-10T03:52:49.513Z,101350.36
2019-06-10T03:55:42.373Z,101355.37
2019-06-10T03:58:33.966Z,101353.88
2019-06-10T04:01:28.623Z,101354.54
2019-06-10T04:04:19.421Z,101354.88
2019-06-10T04:07:14.111Z,101346.83
2019-06-10T04:10:04.027Z,101349.39
2019-06-10T04:12:55.567Z,101348.23
2019-06-10T04:15:47.175Z,101346.16
2019-06-10T04:18:38.655Z,101344.23
2019-06-10T04:21:32.655Z,101343.34
2019-06-10T04:24:25.752Z,101354.66
2019-06-10T04:27:18.038Z,101355.02
2019-06-10T04:30:12.281Z,101358.13
2019-06-10T04:33:03.093Z,101355.14
2019-06-10T04:35:54.654Z,101354.84
2019-06-10T04:38:46.412Z,101349.47
2019-06-10T04:41:38.274Z,101342.61
2019-06-10T04:44:32.983Z,101342.23
2019-06-10T04:47:26.395Z,101330.82
2019-06-10T04:50:24.794Z,101334.73
2019-06-10T04:53:12.759Z,101335.47
2019-06-10T04:56:03.509Z,101332.70
2019-06-10T04:58:54.985Z,101337.67
2019-06-10T05:01:46.509Z,101339.26
2019-06-10T05:04:38.838Z,101340.30
2019-06-10T05:07:35.967Z,101345.48
2019-06-10T05:10:24.099Z,101342.79
2019-06-10T05:13:16.081Z,101343.28
2019-06-10T05:16:07.597Z,101341.13
2019-06-10T05:18:59.327Z,101340.05
2019-06-10T05:21:52.393Z,101335.09
2019-06-10T05:24:44.270Z,101340.94
2019-06-10T05:27:35.785Z,101348.57
2019-06-10T05:30:28.209Z,101352.30
2019-06-10T05:33:22.710Z,101339.38
2019-06-10T05:36:13.420Z,101345.20
2019-06-10T05:39:06.775Z,101345.38
2019-06-10T05:41:58.181Z,101345.52
2019-06-10T05:44:52.284Z,101342.12
2019-06-10T05:47:43.214Z,101344.84
2019-06-10T05:50:35.126Z,101335.02
2019-06-10T05:53:29.249Z,101335.78
2019-06-10T05:56:23.288Z,101330.30
2019-06-10T05:59:14.223Z,101331.56
2019-06-10T06:02:06.721Z,101323.23
2019-06-10T06:04:58.410Z,101316.13
2019-06-10T06:08:04.081Z,101310.30
2019-06-10T06:10:45.054Z,101316.06
2019-06-10T06:13:36.342Z,101314.76
2019-06-10T06:16:27.927Z,101311.47
2019-06-10T06:19:20.049Z,101310.59
2019-06-10T06:22:12.934Z,101295.69
2019-06-10T06:40:23.141Z,101275.88
2019-06-10T06:52:25.900Z,101274.22
2019-06-10T06:56:39.324Z,101271.92
2019-06-10T07:00:34.031Z,101283.34
2019-06-10T07:02:57.089Z,101282.31
2019-06-10T07:05:52.904Z,101278.80
2019-06-10T07:09:00.536Z,101277.51
2019-06-10T07:11:45.188Z,101275.31
2019-06-10T07:14:40.841Z,101271.17
2019-06-10T07:17:37.392Z,101269.58
2019-06-10T07:20:33.331Z,101260.58
2019-06-10T07:23:24.428Z,101245.77
2019-06-10T07:26:17.167Z,101238.13
2019-06-10T07:29:09.179Z,101235.11
2019-06-10T07:32:03.209Z,101222.22
2019-06-10T07:34:53.853Z,101218.02
2019-06-10T07:37:46.067Z,101221.88
2019-06-10T07:40:38.006Z,101222.17
2019-06-10T07:43:32.884Z,101206.77
2019-06-10T07:46:23.672Z,101202.94
2019-06-10T07:49:15.269Z,101195.93
2019-06-10T07:52:15.759Z,101198.00
2019-06-10T07:55:02.359Z,101186.78
2019-06-10T07:57:53.192Z,101181.52
2019-06-10T08:00:48.144Z,101184.25
2019-06-10T08:03:39.836Z,101181.41
2019-06-10T08:06:33.535Z,101173.49
2019-06-10T08:09:24.200Z,101165.02
2019-06-10T08:12:15.648Z,101155.53
2019-06-10T08:15:08.849Z,101155.31
2019-06-10T08:18:04.105Z,101150.59
2019-06-10T08:20:54.030Z,101145.30
2019-06-10T08:23:47.426Z,101148.80
2019-06-10T08:26:39.406Z,101142.63
2019-06-10T08:29:32.992Z,101142.04
2019-06-10T08:32:24.655Z,101137.20
2019-06-10T08:35:16.089Z,101128.67
2019-06-10T08:38:08.280Z,101141.27
2019-06-10T08:41:03.100Z,101162.27
2019-06-10T08:43:53.852Z,101176.52
2019-06-10T08:46:47.273Z,101190.23
2019-06-10T08:49:39.472Z,101182.64
2019-06-10T08:52:44.269Z,101177.66
2019-06-10T08:55:23.914Z,101175.25
2019-06-10T08:58:15.527Z,101179.73
2019-06-10T09:01:07.066Z,101184.70
2019-06-10T09:03:58.458Z,101185.51
2019-06-10T09:06:53.178Z,101191.59
2019-06-10T09:09:45.844Z,101177.34
2019-06-10T09:12:36.824Z,101171.31
2019-06-10T09:15:29.042Z,101180.86
2019-06-10T09:18:23.160Z,101185.87
2019-06-10T09:21:13.143Z,101186.53
2019-06-10T09:24:04.440Z,101185.22
2019-06-10T09:26:55.941Z,101193.39
2019-06-10T09:29:49.852Z,101205.31
2019-06-10T09:32:42.490Z,101215.22
2019-06-10T09:35:33.455Z,101226.87
2019-06-10T09:38:24.821Z,101232.67
2019-06-10T09:41:16.181Z,101247.07
2019-06-10T09:44:07.516Z,101238.09
2019-06-10T09:47:03.309Z,101208.04
2019-06-10T09:49:55.751Z,101188.04
2019-06-10T09:52:52.406Z,101191.02
2019-06-10T09:55:41.648Z,101175.63
2019-06-10T09:58:33.710Z,101156.28
2019-06-10T10:01:25.260Z,101151.55
2019-06-10T10:04:16.795Z,101154.54
2019-06-10T10:07:09.126Z,101155.53
2019-06-10T10:10:04.205Z,101156.77
2019-06-10T10:12:55.772Z,101146.83
2019-06-10T10:15:48.176Z,101132.36
2019-06-10T10:18:40.127Z,101129.39
2019-06-10T10:21:31.860Z,101113.41
2019-06-10T10:24:23.522Z,101105.78
2019-06-10T10:27:14.890Z,101111.31
2019-06-10T10:30:07.284Z,101113.01
2019-06-10T10:32:58.796Z,101121.95
2019-06-10T10:35:50.692Z,101126.95
2019-06-10T10:38:42.774Z,101111.13
2019-06-10T10:41:34.665Z,101103.77
2019-06-10T10:44:25.998Z,101113.23
2019-06-10T10:47:17.493Z,101115.49
2019-06-10T10:50:09.513Z,101100.23
2019-06-10T10:53:00.853Z,101100.95
2019-06-10T10:55:53.492Z,101096.62
2019-06-10T10:58:45.875Z,101092.33
2019-06-10T11:01:38.335Z,101093.17
2019-06-10T11:04:32.669Z,101101.03
2019-06-10T11:07:23.472Z,101080.70
2019-06-10T11:10:14.776Z,101069.95
2019-06-10T11:13:08.649Z,101068.92
2019-06-10T11:16:03.365Z,101070.53
2019-06-10T11:18:56.142Z,101064.07
2019-06-10T11:21:47.443Z,101071.48
2019-06-10T11:24:42.272Z,101074.63
2019-06-10T11:27:33.223Z,101068.73
2019-06-10T11:30:25.761Z,101061.69
2019-06-10T11:33:17.043Z,101068.05
2019-06-10T11:36:08.365Z,101069.06
2019-06-10T11:38:59.663Z,101071.68
2019-06-10T11:41:53.303Z,101066.67
2019-06-10T11:44:44.303Z,101063.17
2019-06-10T11:47:35.977Z,101058.29
2019-06-10T11:50:27.842Z,101064.95
2019-06-10T11:53:19.507Z,101069.65
2019-06-10T11:56:13.106Z,101057.95
2019-06-10T11:59:09.455Z,101060.05
2019-06-10T12:02:01.655Z,101062.34
2019-06-10T12:04:53.715Z,101055.72
2019-06-10T12:07:44.683Z,101054.20
2019-06-10T12:10:36.310Z,101048.17
2019-06-10T12:13:27.962Z,101037.88
2019-06-10T12:17:14.667Z,101040.27
2019-06-10T12:19:12.956Z,101042.83
2019-06-10T12:22:07.609Z,101048.02
2019-06-10T12:25:26.853Z,101058.91
2019-06-10T12:27:55.863Z,101058.46
2019-06-10T12:30:45.257Z,101053.83
2019-06-10T12:33:36.632Z,101059.31
2019-06-10T12:36:27.950Z,101057.70
2019-06-10T12:39:19.526Z,101052.05
2019-06-10T12:42:14.158Z,101042.28
2019-06-10T12:45:08.428Z,101035.14
2019-06-10T12:47:59.989Z,101029.95
2019-06-10T12:50:53.862Z,101022.48
2019-06-10T12:53:44.465Z,101019.16
2019-06-10T12:56:36.682Z,101016.08
2019-06-10T12:59:28.018Z,101004.61
2019-06-10T13:02:24.364Z,101005.47
2019-06-10T13:05:14.649Z,101010.30
2019-06-10T13:08:06.476Z,101003.35
2019-06-10T13:10:58.096Z,100999.13
2019-06-10T13:13:53.087Z,100996.59
2019-06-10T13:16:44.192Z,100990.27
2019-06-10T13:19:35.685Z,100981.30
2019-06-10T13:22:27.628Z,100963.36
2019-06-10T13:25:19.496Z,100947.45
2019-06-10T13:28:11.007Z,100945.60
2019-06-10T13:31:06.168Z,100946.30
2019-06-10T13:33:56.594Z,100945.14
2019-06-10T13:36:47.949Z,100941.79
2019-06-10T13:39:39.308Z,100954.48
2019-06-10T13:42:33.868Z,100962.28
2019-06-10T13:45:25.599Z,100951.70
2019-06-10T13:48:17.388Z,100954.42
2019-06-10T13:51:11.905Z,100954.30
2019-06-10T13:54:03.779Z,100957.98
2019-06-10T13:56:55.283Z,100951.58
2019-06-10T13:59:47.512Z,100952.97
2019-06-10T14:02:39.013Z,100939.53
2019-06-10T14:05:34.030Z,100930.55
2019-06-10T14:08:23.598Z,100934.06
2019-06-10T14:11:16.029Z,100929.02
2019-06-10T14:14:08.000Z,100928.28
2019-06-10T14:17:01.163Z,100938.84
2019-06-10T14:19:54.682Z,100938.19
2019-06-10T14:22:46.693Z,100920.05
2019-06-10T14:25:38.279Z,100903.63
2019-06-10T14:28:39.845Z,100905.72
2019-06-10T14:31:39.566Z,100906.62
2019-06-10T14:34:18.021Z,100907.18
2019-06-10T14:37:12.399Z,100913.72
2019-06-10T14:40:04.933Z,100909.98
2019-06-10T14:42:56.708Z,100912.92
2019-06-10T14:45:48.155Z,100904.00
2019-06-10T14:48:39.773Z,100899.26
2019-06-10T14:51:32.595Z,100901.37
2019-06-10T14:54:24.301Z,100899.48
2019-06-10T14:57:17.287Z,100889.23
2019-06-10T15:00:13.201Z,100888.56
2019-06-10T15:03:05.725Z,100888.73
2019-06-10T15:05:57.084Z,100895.33
2019-06-10T15:08:48.769Z,100902.25
2019-06-10T15:11:40.034Z,100904.52
2019-06-10T15:14:32.398Z,100906.31
2019-06-10T15:17:23.684Z,100891.47
2019-06-10T15:20:15.750Z,100881.55
2019-06-10T15:23:08.685Z,100869.98
2019-06-10T15:26:02.586Z,100870.13
2019-06-10T15:28:53.311Z,100887.64
2019-06-10T15:31:44.596Z,100892.82
2019-06-10T15:34:35.698Z,100896.89
2019-06-10T15:37:28.887Z,100901.36
2019-06-10T15:40:19.860Z,100889.83
2019-06-10T15:43:11.777Z,100880.72
2019-06-10T15:46:03.544Z,100883.52
2019-06-10T15:48:54.908Z,100880.28
2019-06-10T15:51:46.415Z,100895.16
2019-06-10T15:54:37.888Z,100895.67
2019-06-10T15:57:39.544Z,100902.73
2019-06-10T16:00:28.780Z,100889.73
2019-06-10T16:03:17.437Z,100886.66
2019-06-10T16:06:10.017Z,100886.05
2019-06-10T16:09:03.031Z,100879.91
2019-06-10T16:11:55.459Z,100871.53
2019-06-10T16:14:46.750Z,100866.56
2019-06-10T16:17:38.063Z,100855.36
2019-06-10T16:20:29.391Z,100862.36
2019-06-10T16:23:24.701Z,100867.77
2019-06-10T16:26:16.201Z,100879.92
2019-06-10T16:29:08.321Z,100874.27
2019-06-10T16:32:02.358Z,100877.29
2019-06-10T16:34:53.326Z,100873.05
2019-06-10T16:37:45.091Z,100883.20
2019-06-10T16:40:36.857Z,100882.84
2019-06-10T16:43:28.550Z,100892.55
2019-06-10T16:46:20.305Z,100895.77
2019-06-10T16:49:12.757Z,100893.36
2019-06-10T16:52:05.226Z,100895.95
2019-06-10T16:54:57.179Z,100893.47
2019-06-10T16:57:58.766Z,100891.25
2019-06-10T17:00:43.198Z,100895.72
2019-06-10T17:03:34.902Z,100894.80
2019-06-10T17:06:26.823Z,100888.34
2019-06-10T17:09:18.632Z,100883.55
2019-06-10T17:12:09.957Z,100883.30
2019-06-10T17:15:03.442Z,100884.42
2019-06-10T17:17:55.948Z,100899.61
2019-06-10T17:20:48.446Z,100925.47
2019-06-10T17:23:43.130Z,100916.30
2019-06-10T17:26:37.817Z,100907.56
2019-06-10T17:29:27.585Z,100902.59
2019-06-10T17:32:19.796Z,100907.95
2019-06-10T17:35:12.634Z,100909.94
2019-06-10T17:38:04.780Z,100913.38
2019-06-10T17:40:57.004Z,100905.44
2019-06-10T17:43:48.529Z,100900.65
2019-06-10T17:46:42.479Z,100898.72
2019-06-10T17:49:34.917Z,100904.80
2019-06-10T17:52:28.156Z,100912.72
2019-06-10T17:55:23.335Z,100924.03
2019-06-10T17:58:13.711Z,100928.03
2019-06-10T18:01:05.666Z,100922.28
2019-06-10T18:03:57.152Z,100915.37
2019-06-10T18:06:49.657Z,100908.19
2019-06-10T18:09:41.411Z,100915.80
2019-06-10T18:12:35.717Z,100924.86
2019-06-10T18:15:26.180Z,100927.63
2019-06-10T18:18:17.909Z,100929.14
2019-06-10T18:21:09.499Z,100936.15
2019-06-10T18:24:07.454Z,100946.99
2019-06-10T18:26:53.927Z,100952.77
2019-06-10T18:29:46.452Z,100947.95
2019-06-10T18:32:37.877Z,100937.95
2019-06-10T18:35:29.920Z,100937.94
2019-06-10T18:38:21.759Z,100945.17
2019-06-10T18:41:13.159Z,100945.77
2019-06-10T18:44:18.772Z,100945.12
2019-06-10T18:46:58.171Z,100948.00
2019-06-10T18:49:49.864Z,100941.03
2019-06-10T18:52:43.328Z,100942.64
2019-06-10T18:55:38.682Z,100940.20
2019-06-10T18:58:27.849Z,100937.21
2019-06-10T19:01:19.321Z,100940.30
2019-06-10T19:04:12.847Z,100944.47
2019-06-10T19:07:03.955Z,100940.55
2019-06-10T19:09:55.255Z,100946.33
2019-06-10T19:12:46.911Z,100951.36
2019-06-10T19:15:38.193Z,100954.24
2019-06-10T19:18:29.969Z,100950.50
2019-06-10T19:21:21.395Z,100953.62
2019-06-10T19:24:12.995Z,100968.38
2019-06-10T19:27:05.514Z,100975.87
2019-06-10T19:29:57.358Z,100974.45
2019-06-10T19:32:48.753Z,100979.64
2019-06-10T19:35:42.562Z,100989.46
2019-06-10T19:38:35.149Z,100996.86
2019-06-10T19:41:26.583Z,100998.20
2019-06-10T19:44:19.241Z,101000.84
2019-06-10T19:47:12.857Z,101002.34
2019-06-10T19:50:05.555Z,101005.48
2019-06-10T19:52:57.235Z,101008.18
2019-06-10T19:55:48.826Z,101005.54
2019-06-10T19:58:42.727Z,101010.05
2019-06-10T20:01:35.191Z,101012.64
2019-06-10T20:04:27.090Z,101020.09
2019-06-10T20:07:18.654Z,101023.20
2019-06-10T20:10:10.389Z,101026.06
2019-06-10T20:13:01.938Z,101032.55
2019-06-10T20:15:53.491Z,101044.47
2019-06-10T20:18:47.552Z,101049.59
2019-06-10T20:21:38.147Z,101044.69
2019-06-10T20:24:29.645Z,101052.96
2019-06-10T20:27:22.649Z,101051.33
2019-06-10T20:30:24.343Z,101052.38
2019-06-10T20:33:08.488Z,101059.27
2019-06-10T20:36:06.308Z,101060.33
2019-06-10T20:38:53.813Z,101066.98
2019-06-10T20:41:50.420Z,101074.22
2019-06-10T20:44:38.404Z,101078.25
2019-06-10T20:47:30.430Z,101078.92
2019-06-10T20:50:23.665Z,101073.80
2019-06-10T20:53:18.646Z,101074.03
2019-06-10T20:56:08.885Z,101078.58
2019-06-10T20:59:02.775Z,101074.37
2019-06-10T21:01:54.322Z,101076.74
2019-06-10T21:04:48.442Z,101086.29
2019-06-10T21:07:43.770Z,101094.42
2019-06-10T21:10:37.655Z,101088.39
2019-06-10T21:13:29.311Z,101086.69
2019-06-10T21:16:23.005Z,101088.29
2019-06-10T21:19:14.486Z,101091.49
2019-06-10T21:22:06.224Z,101088.27
2019-06-10T21:24:58.128Z,101088.42
2019-06-10T21:27:52.737Z,101078.95
2019-06-10T21:30:48.749Z,101073.06
2019-06-10T21:33:35.934Z,101073.48
2019-06-10T21:36:27.582Z,101069.58
2019-06-10T21:39:19.350Z,101067.42
2019-06-10T21:42:12.484Z,101065.79
2019-06-10T21:45:04.343Z,101074.17
2019-06-10T21:47:55.887Z,101076.86
2019-06-10T21:50:48.718Z,101070.33
2019-06-10T21:53:40.570Z,101075.36
2019-06-10T21:56:32.953Z,101082.38
2019-06-10T21:59:24.696Z,101078.14
2019-06-10T22:02:16.223Z,101076.08
2019-06-10T22:05:08.388Z,101074.03
2019-06-10T22:07:59.946Z,101069.11
2019-06-10T22:10:54.628Z,101068.50
2019-06-10T22:13:44.595Z,101067.15
2019-06-10T22:16:36.008Z,101066.19
2019-06-10T22:19:27.372Z,101066.44
2019-06-10T22:22:18.852Z,101058.27
2019-06-10T22:25:13.016Z,101061.83
2019-06-10T22:28:04.339Z,101069.03
2019-06-10T22:31:14.813Z,101066.08
2019-06-10T22:33:49.588Z,101072.61
2019-06-10T22:36:42.375Z,101068.94
2019-06-10T22:39:33.768Z,101070.01
2019-06-10T22:42:25.058Z,101074.61
2019-06-10T22:45:16.480Z,101075.45
2019-06-10T22:48:07.656Z,101081.74
2019-06-10T22:50:59.530Z,101078.50
2019-06-10T22:53:54.859Z,101068.81
2019-06-10T22:56:44.351Z,101058.27
2019-06-10T22:59:36.053Z,101059.57
2019-06-10T23:02:27.515Z,101064.05
2019-06-10T23:05:19.335Z,101075.33
2019-06-10T23:08:12.657Z,101077.55
2019-06-10T23:11:03.814Z,101083.50
2019-06-10T23:13:56.890Z,101079.94
2019-06-10T23:16:50.828Z,101085.95
2019-06-10T23:19:42.935Z,101076.78
2019-06-10T23:22:34.278Z,101072.64
2019-06-10T23:25:25.660Z,101075.06
2019-06-10T23:28:16.960Z,101081.27
2019-06-10T23:31:08.285Z,101084.17
2019-06-10T23:34:02.077Z,101089.41
2019-06-10T23:36:54.879Z,101086.56
2019-06-10T23:39:45.279Z,101085.33
2019-06-10T23:42:37.335Z,101089.85
2019-06-10T23:45:28.892Z,101097.09
2019-06-10T23:48:22.651Z,101091.37
2019-06-10T23:51:13.673Z,101088.77
2019-06-10T23:54:06.300Z,101086.89
2019-06-10T23:57:00.693Z,101078.77
2019-06-10T23:59:54.063Z,101071.82
